Time;durP1;ratioP1;P1;durP2;ratioP2;P2;SDS_P1;SDS_P2;PMS_P1;PMS_P2;Temp;Humidity;BMP_temperature;BMP_pressure;BME280_temperature;BME280_humidity;BME280_pressure;Samples;Min_cycle;Max_cycle;Signal;HPM_P1;HPM_P2
2022/11/22 00:02:37;;;;;;;1.32;0.10;;;7.90;99.90;;;;;;1890801;75;21083;-88
2022/11/22 00:08:13;;;;;;;0.15;0.10;;;7.80;99.90;;;;;;1954531;72;22090;-90
2022/11/22 00:13:46;;;;;;;0.30;0.20;;;7.70;99.90;;;;;;1936122;72;22131;-90
2022/11/22 00:16:38;;;;;;;1.25;0.30;;;7.60;99.90;;;;;;1899800;73;21099;-88
2022/11/22 00:19:29;;;;;;;1.02;0.37;;;7.60;99.90;;;;;;1904269;75;21162;-89
2022/11/22 00:22:21;;;;;;;1.10;0.42;;;7.50;99.90;;;;;;1899528;74;21178;-88
2022/11/22 00:25:14;;;;;;;1.05;0.30;;;7.50;99.90;;;;;;1902828;73;21055;-89
2022/11/22 00:28:05;;;;;;;1.22;0.30;;;7.40;99.90;;;;;;1874659;73;21168;-88
2022/11/22 00:33:37;;;;;;;4.53;1.65;;;7.40;99.90;;;;;;1949869;72;22269;-90
2022/11/22 00:36:28;;;;;;;1.60;0.68;;;7.40;99.90;;;;;;1880210;74;21146;-89
2022/11/22 00:39:19;;;;;;;3.20;1.00;;;7.40;99.90;;;;;;1885257;75;21180;-89
2022/11/22 00:44:52;;;;;;;0.13;0.10;;;7.40;99.90;;;;;;1940896;72;22186;-90
2022/11/22 00:47:44;;;;;;;0.50;0.20;;;7.30;99.90;;;;;;1885568;75;21190;-89
2022/11/22 00:53:19;;;;;;;0.78;0.30;;;7.40;99.90;;;;;;1945298;72;22680;-90
2022/11/22 00:56:10;;;;;;;0.68;0.25;;;7.40;99.90;;;;;;1896635;75;21209;-89
2022/11/22 00:59:02;;;;;;;0.80;0.40;;;7.50;99.90;;;;;;1896612;75;21189;-88
2022/11/22 01:01:58;;;;;;;0.70;0.30;;;7.50;99.90;;;;;;1911366;75;21165;-90
2022/11/22 01:07:29;;;;;;;0.30;0.20;;;7.50;99.90;;;;;;1948105;72;22191;-89
2022/11/22 01:10:21;;;;;;;0.60;0.37;;;7.50;99.90;;;;;;1905302;74;21174;-89
2022/11/22 01:13:15;;;;;;;1.52;1.00;;;7.50;99.90;;;;;;1916887;74;21201;-89
2022/11/22 01:16:10;;;;;;;1.70;1.17;;;7.60;99.90;;;;;;1911634;74;21149;-89
2022/11/22 01:19:01;;;;;;;2.05;1.35;;;7.60;99.90;;;;;;1905768;74;21121;-89
2022/11/22 01:21:52;;;;;;;1.40;1.30;;;7.60;99.90;;;;;;1922786;74;21160;-89
2022/11/22 01:24:44;;;;;;;1.25;1.00;;;7.60;99.90;;;;;;1919155;74;21189;-89
2022/11/22 01:27:35;;;;;;;1.27;0.78;;;7.60;99.90;;;;;;1905342;75;21128;-88
2022/11/22 01:33:11;;;;;;;1.98;0.70;;;7.70;99.90;;;;;;1958622;72;22182;-89
2022/11/22 01:36:02;;;;;;;1.57;0.80;;;7.70;99.90;;;;;;1918528;74;21099;-88
2022/11/22 01:38:53;;;;;;;1.00;0.80;;;7.70;99.90;;;;;;1905254;75;21066;-88
2022/11/22 01:41:45;;;;;;;2.17;1.10;;;7.60;99.90;;;;;;1913243;74;21150;-88
2022/11/22 01:44:36;;;;;;;1.25;1.00;;;7.60;99.90;;;;;;1909062;74;21110;-90
2022/11/22 01:47:27;;;;;;;1.85;1.40;;;7.60;99.90;;;;;;1904264;75;21087;-90
2022/11/22 01:53:02;;;;;;;2.08;1.50;;;7.60;99.90;;;;;;1967501;72;22162;-89
2022/11/22 01:55:55;;;;;;;2.45;1.80;;;7.60;99.90;;;;;;1909974;73;21173;-88
2022/11/22 01:58:49;;;;;;;3.20;1.95;;;7.60;99.90;;;;;;1912613;74;21060;-88
2022/11/22 02:01:40;;;;;;;1.80;1.52;;;7.70;99.90;;;;;;1920256;74;21151;-88
2022/11/22 02:04:33;;;;;;;2.55;1.55;;;7.60;99.90;;;;;;1904713;75;21144;-89
2022/11/22 02:07:28;;;;;;;2.27;1.67;;;7.70;99.90;;;;;;1915099;74;21098;-89
2022/11/22 02:10:22;;;;;;;2.47;1.60;;;7.70;99.90;;;;;;1915304;74;21111;-88
2022/11/22 02:13:16;;;;;;;1.70;1.10;;;7.70;99.90;;;;;;1905214;75;21055;-88
2022/11/22 02:16:09;;;;;;;1.77;1.20;;;7.70;99.90;;;;;;1911861;74;21095;-88
2022/11/22 02:19:01;;;;;;;3.22;1.20;;;7.70;99.90;;;;;;1906292;74;21115;-88
2022/11/22 02:21:56;;;;;;;1.65;1.10;;;7.70;99.90;;;;;;1907689;74;21651;-88
2022/11/22 02:27:37;;;;;;;2.45;1.82;;;7.70;99.90;;;;;;1949800;72;22210;-89
2022/11/22 02:33:08;;;;;;;2.62;2.20;;;7.60;99.90;;;;;;1962044;72;22168;-89
2022/11/22 02:38:38;;;;;;;2.92;2.27;;;7.60;99.90;;;;;;1946157;72;22598;-90
2022/11/22 02:41:29;;;;;;;3.58;2.58;;;7.60;99.90;;;;;;1895966;75;21216;-89
2022/11/22 02:44:21;;;;;;;2.95;2.42;;;7.60;99.90;;;;;;1875555;75;21136;-90
2022/11/22 02:47:13;;;;;;;2.70;2.33;;;7.60;99.90;;;;;;1903249;75;21121;-88
2022/11/22 02:52:45;;;;;;;3.50;2.80;;;7.60;99.90;;;;;;1931266;72;22624;-89
2022/11/22 02:55:36;;;;;;;2.98;2.60;;;7.60;99.90;;;;;;1881332;75;21085;-89
2022/11/22 02:58:27;;;;;;;2.92;2.58;;;7.60;99.90;;;;;;1869556;74;21161;-89
2022/11/22 03:04:00;;;;;;;3.70;2.60;;;7.60;99.90;;;;;;1932307;72;22320;-88
2022/11/22 03:06:51;;;;;;;2.35;1.57;;;7.60;99.90;;;;;;1881021;75;21229;-89
2022/11/22 03:09:43;;;;;;;1.87;0.78;;;7.60;99.90;;;;;;1898993;75;21111;-88
2022/11/22 03:12:36;;;;;;;1.45;0.90;;;7.60;99.90;;;;;;1903551;75;21158;-89
2022/11/22 03:15:29;;;;;;;1.32;0.80;;;7.60;99.90;;;;;;1879805;75;21126;-89
2022/11/22 03:18:20;;;;;;;1.85;0.68;;;7.60;99.90;;;;;;1900383;75;21201;-89
2022/11/22 03:23:51;;;;;;;1.82;0.95;;;7.60;99.90;;;;;;1938850;72;22253;-88
2022/11/22 03:26:47;;;;;;;1.30;0.88;;;7.60;99.90;;;;;;1885052;75;21184;-88
2022/11/22 03:29:39;;;;;;;1.17;0.80;;;7.60;99.90;;;;;;1884118;75;21137;-88
2022/11/22 03:32:31;;;;;;;1.52;0.80;;;7.60;99.90;;;;;;1885363;75;21090;-88
2022/11/22 03:38:05;;;;;;;1.52;1.32;;;7.50;99.90;;;;;;1927048;72;22185;-87
2022/11/22 03:40:57;;;;;;;1.47;1.20;;;7.40;99.90;;;;;;1902998;75;21217;-89
2022/11/22 03:43:49;;;;;;;1.72;1.55;;;7.40;99.90;;;;;;1902267;75;21098;-89
2022/11/22 03:46:40;;;;;;;3.75;2.12;;;7.40;99.90;;;;;;1887713;75;21588;-88
2022/11/22 03:49:31;;;;;;;2.70;2.30;;;7.40;99.90;;;;;;1897037;75;21114;-88
2022/11/22 03:52:23;;;;;;;2.58;1.85;;;7.40;99.90;;;;;;1905647;75;21124;-88
2022/11/22 03:55:15;;;;;;;1.87;1.22;;;7.40;99.90;;;;;;1882871;75;21119;-89
2022/11/22 03:58:07;;;;;;;1.75;1.30;;;7.30;99.90;;;;;;1897948;75;21104;-89
2022/11/22 04:00:58;;;;;;;3.50;1.00;;;7.30;99.90;;;;;;1855962;77;21162;-86
2022/11/22 04:06:37;;;;;;;1.67;0.95;;;7.10;99.90;;;;;;1947424;72;22186;-89
2022/11/22 04:09:30;;;;;;;2.00;0.50;;;7.10;99.90;;;;;;1916508;74;21149;-89
2022/11/22 04:12:22;;;;;;;0.82;0.60;;;7.10;99.90;;;;;;1909710;74;21095;-88
2022/11/22 04:15:17;;;;;;;1.85;0.90;;;7.20;99.90;;;;;;1921162;74;21136;-88
2022/11/22 04:18:11;;;;;;;2.12;0.80;;;7.30;99.90;;;;;;1921430;74;21197;-88
2022/11/22 04:23:41;;;;;;;2.15;0.80;;;7.20;99.90;;;;;;1949624;72;22267;-89
2022/11/22 04:26:34;;;;;;;2.98;1.57;;;7.20;99.90;;;;;;1912467;74;21162;-88
2022/11/22 04:29:25;;;;;;;3.15;1.75;;;7.20;99.90;;;;;;1926321;74;21161;-88
2022/11/22 04:38:05;;;;;;;2.50;2.02;;;7.30;99.90;;;;;;1948776;72;22185;-89
2022/11/22 04:46:44;;;;;;;2.37;1.20;;;7.30;99.90;;;;;;1884082;75;21090;-88
2022/11/22 04:49:35;;;;;;;1.45;1.27;;;7.10;99.90;;;;;;1881837;75;21154;-88
2022/11/22 04:55:36;;;;;;;1.98;1.10;;;7.10;99.90;;;;;;1882380;75;21091;-89
2022/11/22 04:58:27;;;;;;;1.37;1.05;;;7.20;99.90;;;;;;1892846;75;21173;-88
2022/11/22 05:01:19;;;;;;;4.67;1.40;;;7.20;99.90;;;;;;1872718;75;21109;-88
2022/11/22 05:04:11;;;;;;;2.15;1.40;;;7.20;99.90;;;;;;1874973;75;21134;-87
2022/11/22 05:07:02;;;;;;;2.55;1.30;;;7.10;99.90;;;;;;1881608;75;21120;-87
2022/11/22 05:12:45;;;;;;;4.42;1.20;;;7.00;99.90;;;;;;1962295;72;22281;-88
2022/11/22 05:15:36;;;;;;;2.72;1.70;;;7.00;99.90;;;;;;1922104;73;21122;-88
2022/11/22 05:18:30;;;;;;;3.65;1.90;;;7.00;99.90;;;;;;1919790;73;21158;-88
2022/11/22 05:24:09;;;;;;;2.35;1.20;;;6.80;99.90;;;;;;1944426;72;22261;-88
2022/11/22 05:27:01;;;;;;;5.42;1.92;;;6.70;99.90;;;;;;1923073;74;21212;-89
2022/11/22 05:32:32;;;;;;;3.27;1.52;;;6.70;99.90;;;;;;1933995;72;22319;-88
2022/11/22 05:38:15;;;;;;;2.92;1.45;;;6.70;99.90;;;;;;1946647;72;23313;-88
2022/11/22 05:43:45;;;;;;;2.98;1.55;;;6.70;99.90;;;;;;1953248;72;22542;-89
2022/11/22 05:46:36;;;;;;;1.92;1.20;;;6.80;99.90;;;;;;1923537;74;21384;-88
2022/11/22 05:49:27;;;;;;;1.87;0.93;;;6.90;99.90;;;;;;1904695;74;21219;-87
2022/11/22 05:52:19;;;;;;;1.50;1.00;;;6.90;99.90;;;;;;1903699;74;21179;-88
2022/11/22 05:57:52;;;;;;;3.35;1.17;;;7.00;99.90;;;;;;1959603;72;22333;-87
2022/11/22 06:00:45;;;;;;;2.85;1.15;;;7.00;99.90;;;;;;1922997;73;21106;-87
2022/11/22 06:03:36;;;;;;;5.87;1.17;;;6.90;99.90;;;;;;1912411;74;21406;-89
2022/11/22 06:06:31;;;;;;;3.42;1.02;;;6.80;99.90;;;;;;1906596;74;21114;-87
2022/11/22 06:09:22;;;;;;;1.47;0.88;;;6.80;99.90;;;;;;1906162;75;21111;-88
2022/11/22 06:14:52;;;;;;;2.67;1.30;;;6.80;99.90;;;;;;1954008;72;22150;-88
2022/11/22 06:20:23;;;;;;;3.67;0.93;;;6.80;99.90;;;;;;1929808;72;22437;-88
2022/11/22 06:23:14;;;;;;;3.12;1.05;;;6.80;99.90;;;;;;1916978;75;21181;-87
2022/11/22 06:26:08;;;;;;;5.08;1.22;;;6.80;99.90;;;;;;1883647;76;21171;-88
2022/11/22 06:28:59;;;;;;;2.70;0.78;;;6.80;99.90;;;;;;1884255;73;21051;-87
2022/11/22 06:31:51;;;;;;;4.28;0.90;;;6.70;99.90;;;;;;1902339;75;21163;-87
2022/11/22 06:34:44;;;;;;;2.87;1.00;;;6.80;99.90;;;;;;1883174;76;21094;-88
2022/11/22 06:37:36;;;;;;;2.33;0.60;;;7.00;99.90;;;;;;1890844;75;21102;-87
2022/11/22 06:40:27;;;;;;;4.55;0.80;;;7.10;99.90;;;;;;1891303;75;21423;-88
2022/11/22 06:46:13;;;;;;;5.62;1.45;;;7.10;99.90;;;;;;1960696;72;22158;-89
2022/11/22 06:51:45;;;;;;;3.80;1.07;;;7.10;99.90;;;;;;1941534;72;22207;-89
2022/11/22 06:54:36;;;;;;;3.35;1.40;;;7.00;99.90;;;;;;1928124;73;21109;-88
2022/11/22 06:57:31;;;;;;;3.92;1.07;;;7.00;99.90;;;;;;1922788;74;21122;-88
2022/11/22 07:00:22;;;;;;;4.90;1.12;;;7.00;99.90;;;;;;1923516;74;21155;-87
2022/11/22 07:03:14;;;;;;;5.62;1.50;;;7.00;99.90;;;;;;1934748;73;21129;-87
2022/11/22 07:06:08;;;;;;;5.37;1.20;;;6.90;99.90;;;;;;1924982;73;21093;-88
2022/11/22 07:09:00;;;;;;;5.22;1.10;;;7.10;99.90;;;;;;1946104;73;21085;-87
2022/11/22 07:11:51;;;;;;;5.55;0.90;;;7.10;99.90;;;;;;1937669;73;21143;-88
2022/11/22 07:17:24;;;;;;;2.40;0.70;;;7.10;99.90;;;;;;1930570;72;23282;-88
2022/11/22 07:22:53;;;;;;;5.03;1.10;;;7.10;99.90;;;;;;1937842;72;22198;-88
2022/11/22 07:25:46;;;;;;;3.80;0.90;;;7.10;99.90;;;;;;1916975;75;21108;-88
2022/11/22 07:28:38;;;;;;;3.05;1.17;;;7.10;99.90;;;;;;1916738;75;21087;-87
2022/11/22 07:31:30;;;;;;;3.58;0.70;;;7.10;99.90;;;;;;1921466;73;21133;-88
2022/11/22 07:34:21;;;;;;;3.85;0.98;;;7.20;99.90;;;;;;1936670;73;21131;-88
2022/11/22 07:37:13;;;;;;;6.25;1.50;;;7.20;99.90;;;;;;1928935;73;21090;-88
2022/11/22 07:40:07;;;;;;;5.25;1.22;;;7.00;99.90;;;;;;1945882;73;21356;-88
2022/11/22 07:42:59;;;;;;;3.92;0.98;;;6.90;99.90;;;;;;1916690;75;21619;-87
2022/11/22 07:45:51;;;;;;;3.77;1.10;;;6.90;99.90;;;;;;1916371;75;21082;-88
2022/11/22 07:48:42;;;;;;;3.25;1.00;;;6.90;99.90;;;;;;1916358;75;21137;-88
2022/11/22 07:51:34;;;;;;;5.90;1.42;;;7.10;99.90;;;;;;1936217;73;21024;-88
2022/11/22 07:54:26;;;;;;;3.52;1.15;;;7.10;99.90;;;;;;1948428;73;21083;-87
2022/11/22 07:57:17;;;;;;;3.35;1.05;;;7.00;99.90;;;;;;1918517;73;21121;-87
2022/11/22 08:03:06;;;;;;;3.47;1.02;;;7.20;99.90;;;;;;1928869;72;22201;-88
2022/11/22 08:06:01;;;;;;;5.30;1.62;;;7.50;99.90;;;;;;1879117;75;21192;-89
2022/11/22 08:08:53;;;;;;;4.42;0.80;;;7.40;99.90;;;;;;1895463;75;21156;-87
2022/11/22 08:11:46;;;;;;;3.27;1.10;;;7.40;99.90;;;;;;1891386;75;21090;-88
2022/11/22 08:14:38;;;;;;;4.08;1.10;;;7.60;99.90;;;;;;1890076;75;21190;-89
2022/11/22 08:17:30;;;;;;;4.72;1.30;;;7.60;99.90;;;;;;1868158;75;21667;-88
2022/11/22 08:23:03;;;;;;;4.20;1.62;;;7.60;99.90;;;;;;1945577;72;22174;-89
2022/11/22 08:28:35;;;;;;;6.25;2.08;;;7.60;99.90;;;;;;1963287;72;22208;-88
2022/11/22 08:31:27;;;;;;;4.25;1.20;;;7.60;99.90;;;;;;1915688;74;21119;-89
2022/11/22 08:37:09;;;;;;;5.33;1.20;;;7.90;99.90;;;;;;1943045;72;22257;-89
2022/11/22 08:40:00;;;;;;;5.58;1.55;;;8.00;99.90;;;;;;1917218;75;21215;-87
2022/11/22 08:42:55;;;;;;;2.65;1.07;;;8.10;99.90;;;;;;1917117;75;21167;-87
2022/11/22 08:45:47;;;;;;;4.78;2.33;;;8.20;99.90;;;;;;1938881;73;21131;-87
2022/11/22 08:48:39;;;;;;;4.37;1.10;;;8.30;99.90;;;;;;1894424;75;21086;-88
2022/11/22 08:51:33;;;;;;;4.28;1.30;;;8.40;99.90;;;;;;1921773;73;21114;-88
2022/11/22 08:54:24;;;;;;;4.95;1.95;;;8.50;99.90;;;;;;1920770;73;21131;-88
2022/11/22 08:57:16;;;;;;;5.45;2.12;;;8.60;99.90;;;;;;1916928;73;21090;-87
2022/11/22 09:02:48;;;;;;;3.90;2.05;;;8.60;99.90;;;;;;1921057;72;22295;-88
2022/11/22 09:08:23;;;;;;;5.53;2.75;;;8.70;99.90;;;;;;1944873;72;22705;-88
2022/11/22 09:11:16;;;;;;;4.85;2.72;;;8.70;99.90;;;;;;1882377;75;21107;-89
2022/11/22 09:14:07;;;;;;;5.05;3.00;;;8.70;99.90;;;;;;1887462;75;21139;-88
2022/11/22 09:16:59;;;;;;;8.53;2.95;;;8.60;99.90;;;;;;1898570;75;21098;-87
2022/11/22 09:19:51;;;;;;;4.42;2.62;;;8.60;99.90;;;;;;1881113;75;21063;-88
2022/11/22 09:22:42;;;;;;;6.78;3.35;;;8.60;99.90;;;;;;1890584;75;21067;-88
2022/11/22 09:28:26;;;;;;;4.40;3.15;;;8.70;99.90;;;;;;1939782;72;22236;-88
2022/11/22 09:31:19;;;;;;;5.10;2.77;;;8.80;99.90;;;;;;1936150;73;21577;-88
2022/11/22 09:34:11;;;;;;;5.58;2.60;;;8.90;99.90;;;;;;1930059;73;21148;-88
2022/11/22 09:39:51;;;;;;;5.17;2.90;;;9.20;99.90;;;;;;1939235;72;22186;-88
2022/11/22 09:42:56;;;;;;;6.15;2.72;;;9.40;99.90;;;;;;1871940;75;21206;-88
2022/11/22 09:46:16;;;;;;;7.30;2.55;;;9.30;99.90;;;;;;1873886;75;21172;-87
2022/11/22 09:52:22;;;;;;;3.15;2.10;;;9.40;99.90;;;;;;1935610;72;22280;-89
2022/11/22 09:58:02;;;;;;;2.45;1.45;;;9.30;99.90;;;;;;1948461;72;22198;-89
2022/11/22 10:00:54;;;;;;;;;;;9.30;99.90;;;;;;1903370;75;21182;-88
2022/11/22 10:03:54;;;;;;;3.08;1.02;;;9.40;99.90;;;;;;1893929;73;20416;-87
2022/11/22 10:06:49;;;;;;;3.70;1.30;;;9.40;99.90;;;;;;1883699;76;21122;-88
2022/11/22 10:12:38;;;;;;;4.42;1.35;;;9.40;99.90;;;;;;1930505;72;22190;-89
2022/11/22 10:15:33;;;;;;;3.37;1.37;;;9.60;99.90;;;;;;1892946;74;21220;-89
2022/11/22 10:18:28;;;;;;;4.03;1.50;;;9.80;99.90;;;;;;1884551;75;21137;-87
2022/11/22 10:21:21;;;;;;;3.35;1.57;;;9.90;99.90;;;;;;1875508;75;21059;-87
2022/11/22 10:24:18;;;;;;;4.78;1.90;;;10.00;99.90;;;;;;1882898;75;21574;-87
2022/11/22 10:27:14;;;;;;;1.67;1.05;;;10.10;99.90;;;;;;1879709;75;21125;-88
2022/11/22 10:30:11;;;;;;;3.85;1.25;;;10.20;99.90;;;;;;1886974;75;21236;-88
2022/11/22 10:33:11;;;;;;;3.08;1.10;;;10.20;99.90;;;;;;1879641;75;21114;-88
2022/11/22 10:36:28;;;;;;;2.62;1.00;;;10.20;99.90;;;;;;1877015;75;21176;-88
2022/11/22 10:39:29;;;;;;;3.40;1.10;;;10.10;99.90;;;;;;1883160;75;21496;-87
2022/11/22 10:42:30;;;;;;;5.90;1.22;;;10.10;99.90;;;;;;1886759;75;21213;-87
2022/11/22 10:45:26;;;;;;;3.33;1.02;;;10.10;99.90;;;;;;1879552;75;21110;-87
2022/11/22 10:48:23;;;;;;;3.50;1.20;;;10.30;99.90;;;;;;1872707;75;21139;-87
2022/11/22 10:51:20;;;;;;;2.83;0.70;;;10.50;99.90;;;;;;1877892;75;21107;-87
2022/11/22 10:54:16;;;;;;;2.75;0.78;;;10.70;99.90;;;;;;1901260;75;21091;-87
2022/11/22 10:59:56;;;;;;;2.98;1.05;;;10.50;99.90;;;;;;1923810;72;22162;-84
2022/11/22 11:06:01;;;;;;;3.37;0.90;;;10.50;99.90;;;;;;1945202;72;22221;-83
2022/11/22 11:08:58;;;;;;;2.47;0.70;;;10.60;99.90;;;;;;1930666;73;21126;-82
2022/11/22 11:11:53;;;;;;;4.83;1.40;;;10.80;99.90;;;;;;1924392;73;21125;-82
2022/11/22 11:14:49;;;;;;;2.22;0.60;;;11.00;99.90;;;;;;1916984;75;21132;-83
2022/11/22 11:17:42;;;;;;;2.20;0.62;;;11.00;99.90;;;;;;1916224;74;21159;-82
2022/11/22 11:23:12;;;;;;;3.65;0.90;;;10.80;99.90;;;;;;1953470;72;22599;-83
2022/11/22 11:26:22;;;;;;;1.75;0.70;;;10.80;99.90;;;;;;1903742;74;21067;-83
2022/11/22 11:29:36;;;;;;;4.70;0.60;;;10.80;99.90;;;;;;1912636;75;21091;-83
2022/11/22 11:32:28;;;;;;;2.52;0.62;;;10.80;99.90;;;;;;1892448;75;21079;-83
2022/11/22 11:37:59;;;;;;;5.47;0.93;;;10.80;99.90;;;;;;1937496;72;22755;-84
2022/11/22 11:43:30;;;;;;;2.67;1.02;;;10.70;99.90;;;;;;2012362;69;22118;-82
2022/11/22 11:46:23;;;;;;;1.85;0.60;;;10.70;99.90;;;;;;1980308;72;21118;-84
2022/11/22 11:49:17;;;;;;;3.47;1.00;;;10.80;99.90;;;;;;1964725;72;21074;-84
2022/11/22 11:52:12;;;;;;;3.00;0.60;;;10.90;99.90;;;;;;1985758;71;21184;-82
2022/11/22 11:57:45;;;;;;;2.85;1.02;;;11.10;99.90;;;;;;1950140;72;22264;-83
2022/11/22 12:00:40;;;;;;;4.97;1.82;;;11.10;99.90;;;;;;1904468;75;21158;-82
2022/11/22 12:03:32;;;;;;;3.67;1.50;;;11.20;99.90;;;;;;1909761;74;21218;-83
2022/11/22 12:06:29;;;;;;;4.92;1.67;;;11.30;99.90;;;;;;1904264;75;21652;-83
2022/11/22 12:09:30;;;;;;;3.17;1.47;;;11.40;99.90;;;;;;1931802;74;21095;-82
2022/11/22 12:12:36;;;;;;;4.35;1.37;;;11.40;99.90;;;;;;1923038;74;21110;-83
2022/11/22 12:18:21;;;;;;;5.30;2.02;;;11.20;99.90;;;;;;1954694;72;22322;-84
2022/11/22 12:24:07;;;;;;;6.00;2.95;;;11.30;99.90;;;;;;1946793;72;22597;-91
2022/11/22 12:27:02;;;;;;;4.03;1.80;;;11.30;99.90;;;;;;1885487;75;21126;-92
2022/11/22 12:29:54;;;;;;;4.42;2.22;;;11.40;99.90;;;;;;1906361;75;21168;-91
2022/11/22 12:32:49;;;;;;;3.72;1.95;;;11.40;99.90;;;;;;1902111;75;21106;-91
2022/11/22 12:38:29;;;;;;;5.45;2.70;;;11.40;99.90;;;;;;1933487;72;28759;-92
2022/11/22 12:44:05;;;;;;;5.35;2.17;;;11.50;99.90;;;;;;1941817;72;22173;-92
2022/11/22 12:47:00;;;;;;;7.10;2.65;;;11.40;99.90;;;;;;1883884;75;21107;-90
2022/11/22 12:49:55;;;;;;;6.67;2.05;;;11.40;99.90;;;;;;1893409;75;21168;-92
2022/11/22 12:52:50;;;;;;;6.28;2.10;;;11.30;99.90;;;;;;1917621;75;21051;-92
2022/11/22 12:55:46;;;;;;;7.12;2.62;;;11.10;99.90;;;;;;1895521;75;21115;-90
2022/11/22 12:58:41;;;;;;;6.35;2.20;;;11.00;99.90;;;;;;1884726;76;21102;-91
2022/11/22 13:01:37;;;;;;;3.87;1.90;;;11.00;99.90;;;;;;1898075;75;21051;-91
2022/11/22 13:04:32;;;;;;;6.05;2.27;;;11.10;99.90;;;;;;1907835;75;21116;-91
2022/11/22 13:07:28;;;;;;;3.65;1.60;;;11.10;99.90;;;;;;1883784;75;21267;-91
2022/11/22 13:10:25;;;;;;;4.33;1.80;;;11.10;99.90;;;;;;1905594;75;21176;-93
2022/11/22 13:13:22;;;;;;;6.50;2.40;;;10.90;99.90;;;;;;1902583;75;21094;-91
2022/11/22 13:16:15;;;;;;;4.00;1.80;;;10.90;99.90;;;;;;1884333;76;21395;-92
2022/11/22 13:19:10;;;;;;;5.83;1.95;;;10.90;99.90;;;;;;1906130;75;21660;-91
2022/11/22 13:22:12;;;;;;;5.22;1.62;;;10.80;99.90;;;;;;1884046;76;21175;-91
2022/11/22 13:25:13;;;;;;;4.40;1.25;;;10.80;99.90;;;;;;1907085;75;21173;-91
2022/11/22 13:31:08;;;;;;;2.80;0.98;;;10.60;99.90;;;;;;1958527;72;22186;-92
2022/11/22 13:34:03;;;;;;;3.58;0.95;;;10.10;99.90;;;;;;1917935;75;21086;-91
2022/11/22 13:36:55;;;;;;;4.00;0.90;;;9.80;99.90;;;;;;1917243;73;21104;-91
2022/11/22 13:39:49;;;;;;;3.30;0.85;;;9.50;99.90;;;;;;1916846;75;21237;-92
2022/11/22 13:42:42;;;;;;;3.83;1.05;;;9.20;99.90;;;;;;1917221;75;21115;-92
2022/11/22 13:45:50;;;;;;;4.05;0.90;;;9.00;99.90;;;;;;1917065;75;21138;-92
2022/11/22 13:49:13;;;;;;;4.00;0.90;;;9.00;99.90;;;;;;1917292;75;21526;-92
2022/11/22 13:52:08;;;;;;;3.27;0.70;;;9.00;99.90;;;;;;1916813;75;21125;-93
2022/11/22 13:55:03;;;;;;;3.70;0.60;;;8.90;99.90;;;;;;1915375;75;21106;-92
2022/11/22 13:57:55;;;;;;;3.52;0.78;;;8.90;99.90;;;;;;1917730;75;21100;-92
2022/11/22 14:00:48;;;;;;;2.87;0.57;;;8.90;99.90;;;;;;1917012;75;21117;-91
2022/11/22 14:03:42;;;;;;;3.58;0.60;;;9.10;99.90;;;;;;1917310;75;21181;-92
2022/11/22 14:06:34;;;;;;;4.78;0.70;;;9.20;99.90;;;;;;1917516;75;21562;-92
2022/11/22 14:13:07;;;;;;;3.20;0.95;;;9.20;99.90;;;;;;1975318;72;22090;-92
2022/11/22 14:16:07;;;;;;;1.92;0.70;;;9.20;99.90;;;;;;1904852;75;21107;-91
2022/11/22 14:19:06;;;;;;;3.17;1.07;;;9.10;99.90;;;;;;1912237;74;21362;-93
2022/11/22 14:22:06;;;;;;;2.30;0.93;;;9.00;99.90;;;;;;1934189;74;21083;-92
2022/11/22 14:25:17;;;;;;;2.33;0.65;;;8.90;99.90;;;;;;1904709;75;21655;-92
2022/11/22 14:28:14;;;;;;;1.05;0.50;;;8.90;99.90;;;;;;1905200;75;21060;-91
2022/11/22 14:31:17;;;;;;;4.25;1.35;;;8.90;99.90;;;;;;1919877;75;21771;-91
2022/11/22 14:34:22;;;;;;;2.00;0.80;;;9.00;99.90;;;;;;1906515;75;21143;-91
2022/11/22 14:40:35;;;;;;;2.35;1.12;;;8.90;99.90;;;;;;1964464;72;22166;-92
2022/11/22 14:43:35;;;;;;;4.78;1.27;;;9.00;99.90;;;;;;1914554;74;21123;-91
2022/11/22 14:46:28;;;;;;;5.65;1.35;;;9.00;99.90;;;;;;1931743;74;21112;-91
2022/11/22 14:49:33;;;;;;;3.67;1.10;;;9.10;99.90;;;;;;1904516;75;21126;-92
2022/11/22 14:52:28;;;;;;;2.55;1.12;;;9.00;99.90;;;;;;1904757;75;21146;-91
2022/11/22 14:55:23;;;;;;;3.08;1.12;;;9.00;99.90;;;;;;1904581;75;21146;-92
2022/11/22 14:58:20;;;;;;;6.17;1.50;;;8.90;99.90;;;;;;1918103;74;21134;-91
2022/11/22 15:01:44;;;;;;;4.83;0.98;;;8.90;99.90;;;;;;1908284;74;21162;-92
2022/11/22 15:04:49;;;;;;;3.35;1.00;;;8.80;99.90;;;;;;1905067;75;21167;-92
2022/11/22 15:07:53;;;;;;;5.53;1.50;;;8.60;99.90;;;;;;1904714;75;21110;-94
2022/11/22 15:11:05;;;;;;;9.63;1.60;;;8.60;99.90;;;;;;1905268;75;21138;-92
2022/11/22 15:14:25;;;;;;;9.35;1.77;;;8.50;99.90;;;;;;1863044;77;21079;-93
2022/11/22 15:17:19;;;;;;;7.42;1.80;;;8.50;99.90;;;;;;1904451;75;21060;-92
2022/11/22 15:20:34;;;;;;;8.90;2.15;;;8.50;99.90;;;;;;1904531;75;21147;-94
2022/11/22 15:23:29;;;;;;;5.58;2.45;;;8.50;99.90;;;;;;1907470;74;21180;-91
2022/11/22 15:26:24;;;;;;;6.33;1.95;;;8.50;99.90;;;;;;1917388;74;21106;-94
2022/11/22 15:29:19;;;;;;;4.08;1.10;;;8.50;99.90;;;;;;1904595;75;21221;-93
2022/11/22 15:32:22;;;;;;;4.40;1.30;;;8.60;99.90;;;;;;1905038;75;21086;-92
2022/11/22 15:35:18;;;;;;;5.75;1.75;;;8.70;99.90;;;;;;1905059;75;21143;-93
2022/11/22 15:38:12;;;;;;;4.25;1.50;;;8.70;99.90;;;;;;1904682;75;21061;-93
2022/11/22 15:41:06;;;;;;;4.58;1.40;;;8.60;99.90;;;;;;1907400;75;21134;-92
2022/11/22 15:44:03;;;;;;;3.90;1.42;;;8.80;99.90;;;;;;1907742;74;21176;-91
2022/11/22 15:46:56;;;;;;;3.62;1.60;;;8.70;99.90;;;;;;1921001;74;21102;-92
2022/11/22 15:49:49;;;;;;;4.35;1.80;;;8.60;99.90;;;;;;1909601;73;21107;-91
2022/11/22 15:52:50;;;;;;;5.75;2.45;;;8.60;99.90;;;;;;1906514;75;21188;-92
2022/11/22 15:55:45;;;;;;;6.90;2.17;;;8.50;99.90;;;;;;1906713;74;21099;-93
2022/11/22 15:58:40;;;;;;;4.62;1.82;;;8.50;99.90;;;;;;1906346;75;21117;-91
2022/11/22 16:01:33;;;;;;;4.72;2.05;;;8.40;99.90;;;;;;1906986;74;21084;-93
2022/11/22 16:04:28;;;;;;;6.65;2.35;;;8.40;99.90;;;;;;1915148;74;21147;-95
2022/11/22 16:07:31;;;;;;;6.78;1.98;;;8.40;99.90;;;;;;1915212;73;21137;-92
2022/11/22 16:10:30;;;;;;;7.22;2.62;;;8.40;99.90;;;;;;1907205;74;21215;-93
2022/11/22 16:13:29;;;;;;;5.87;1.98;;;8.40;99.90;;;;;;1907450;74;21091;-92
2022/11/22 16:16:25;;;;;;;6.00;2.27;;;8.50;99.90;;;;;;1907659;75;21087;-93
2022/11/22 16:19:22;;;;;;;6.25;2.20;;;8.50;99.90;;;;;;1907264;74;21098;-92
2022/11/22 16:22:32;;;;;;;5.92;2.20;;;8.40;99.90;;;;;;1915289;74;21216;-91
2022/11/22 16:25:29;;;;;;;5.10;2.20;;;8.40;99.90;;;;;;1942251;73;21114;-92
2022/11/22 16:28:31;;;;;;;5.12;2.30;;;8.40;99.90;;;;;;1914819;73;21100;-92
2022/11/22 16:31:26;;;;;;;6.12;3.08;;;8.50;99.90;;;;;;1907230;75;21245;-92
2022/11/22 16:34:18;;;;;;;6.17;2.30;;;8.50;99.90;;;;;;1906087;75;21087;-93
2022/11/22 16:37:27;;;;;;;4.50;2.37;;;8.50;99.90;;;;;;1904955;75;21151;-92
2022/11/22 16:40:21;;;;;;;5.72;2.12;;;8.60;99.90;;;;;;1908231;75;21125;-93
2022/11/22 16:43:17;;;;;;;4.15;2.17;;;8.60;99.90;;;;;;1913225;75;21118;-92
2022/11/22 16:46:12;;;;;;;4.22;2.05;;;8.70;99.90;;;;;;1913721;75;21332;-94
2022/11/22 16:49:11;;;;;;;5.20;1.72;;;8.70;99.90;;;;;;1911320;75;21103;-93
2022/11/22 16:52:03;;;;;;;4.85;2.35;;;8.70;99.90;;;;;;1910202;75;21168;-92
2022/11/22 16:54:55;;;;;;;4.50;2.22;;;8.70;99.90;;;;;;1910484;75;21103;-92
2022/11/22 16:57:48;;;;;;;3.05;2.05;;;8.60;99.90;;;;;;1910018;75;21190;-94
2022/11/22 17:00:39;;;;;;;5.92;2.65;;;8.60;99.90;;;;;;1909060;75;21103;-93
2022/11/22 17:03:35;;;;;;;5.75;2.27;;;8.60;99.90;;;;;;1910444;75;21095;-93
2022/11/22 17:06:28;;;;;;;8.43;3.20;;;8.70;99.90;;;;;;1911435;75;21145;-90
2022/11/22 17:09:21;;;;;;;7.42;2.98;;;8.70;99.90;;;;;;1922494;74;21103;-93
2022/11/22 17:12:16;;;;;;;8.53;4.95;;;8.80;99.90;;;;;;1944101;73;21309;-93
2022/11/22 17:15:16;;;;;;;14.55;8.70;;;8.80;99.90;;;;;;1935588;74;21550;-94
2022/11/22 17:18:06;;;;;;;10.28;5.65;;;8.80;99.90;;;;;;1929352;73;21132;-93
2022/11/22 17:21:00;;;;;;;6.50;4.08;;;8.80;99.90;;;;;;1926232;74;21528;-93
2022/11/22 17:23:58;;;;;;;5.70;3.15;;;8.80;99.90;;;;;;1947002;73;21119;-94
2022/11/22 17:26:50;;;;;;;6.47;3.33;;;8.70;99.90;;;;;;1947259;73;21176;-93
2022/11/22 17:29:43;;;;;;;4.75;2.52;;;8.70;99.90;;;;;;1947020;73;21094;-93
2022/11/22 17:32:39;;;;;;;6.87;1.90;;;8.70;99.90;;;;;;1929867;73;21117;-93
2022/11/22 17:35:31;;;;;;;4.78;2.50;;;8.70;99.90;;;;;;1911943;75;21099;-93
2022/11/22 17:38:26;;;;;;;6.90;2.72;;;8.70;99.90;;;;;;1912026;75;21129;-92
2022/11/22 17:41:17;;;;;;;6.00;2.92;;;8.70;99.90;;;;;;1912890;75;21224;-92
2022/11/22 17:44:15;;;;;;;6.67;3.52;;;8.70;99.90;;;;;;1915169;75;21106;-91
2022/11/22 17:47:08;;;;;;;6.03;2.65;;;8.70;99.90;;;;;;1913400;75;21193;-94
2022/11/22 17:50:00;;;;;;;5.17;3.17;;;8.70;99.90;;;;;;1913741;75;21147;-92
2022/11/22 17:52:54;;;;;;;5.15;2.90;;;8.70;99.90;;;;;;1911157;75;21091;-92
2022/11/22 17:55:57;;;;;;;6.45;2.70;;;8.70;99.90;;;;;;1909988;75;21157;-93
2022/11/22 17:58:48;;;;;;;5.12;2.52;;;8.70;99.90;;;;;;1911178;75;21095;-93
2022/11/22 18:01:40;;;;;;;6.17;2.83;;;8.70;99.90;;;;;;1910276;74;21123;-93